Time;durP1;ratioP1;P1;durP2;ratioP2;P2;SDS_P1;SDS_P2;PMS_P1;PMS_P2;Temp;Humidity;BMP_temperature;BMP_pressure;BME280_temperature;BME280_humidity;BME280_pressure;Samples;Min_cycle;Max_cycle;Signal;HPM_P1;HPM_P2
2023/12/30 00:00:07;;;;;;;18.33;10.20;;;;;;;10.49;100.00;99190.41;6345391;22;20017;-96
2023/12/30 00:02:55;;;;;;;20.15;11.57;;;;;;;10.40;100.00;99178.19;6356657;22;20021;-95
2023/12/30 00:05:25;;;;;;;25.58;13.00;;;;;;;11.00;100.00;99270.06;6358841;22;20015;-94
2023/12/30 00:07:59;;;;;;;21.85;12.85;;;;;;;10.44;100.00;99169.25;6330700;22;19999;-95
2023/12/30 00:10:30;;;;;;;22.75;12.82;;;;;;;10.37;100.00;99175.59;6332651;22;20045;-95
2023/12/30 00:13:02;;;;;;;25.67;14.48;;;;;;;10.82;100.00;99255.38;6358828;22;20086;-95
2023/12/30 00:15:38;;;;;;;25.35;12.90;;;;;;;10.28;100.00;99152.69;6331775;22;20022;-95
2023/12/30 00:18:21;;;;;;;23.85;13.80;;;;;;;10.79;100.00;99236.78;6357567;22;20038;-95
2023/12/30 00:20:56;;;;;;;24.88;15.27;;;;;;;10.93;100.00;99256.91;6358643;22;20018;-95
2023/12/30 00:23:28;;;;;;;28.00;15.23;;;;;;;10.52;100.00;99184.16;6358126;22;20007;-94
2023/12/30 00:26:05;;;;;;;26.10;15.20;;;;;;;10.54;100.00;99177.91;6333191;22;20015;-96
2023/12/30 00:28:41;;;;;;;26.90;14.77;;;;;;;11.05;100.00;99256.66;6330967;22;20021;-96
2023/12/30 00:31:26;;;;;;;25.30;14.88;;;;;;;10.53;100.00;99167.31;6358115;22;20076;-95
2023/12/30 00:34:05;;;;;;;24.38;14.25;;;;;;;11.09;100.00;99239.72;6353698;22;20019;-95
2023/12/30 00:36:43;;;;;;;24.98;15.65;;;;;;;10.51;100.00;99148.72;6360669;22;20052;-94
2023/12/30 00:39:14;;;;;;;30.67;16.85;;;;;;;10.65;100.00;99145.78;6359882;22;20070;-95
2023/12/30 00:41:51;;;;;;;24.08;15.18;;;;;;;10.75;100.00;99187.22;6360994;22;20018;-95
2023/12/30 00:44:26;;;;;;;26.20;15.32;;;;;;;11.11;100.00;99243.22;6333724;22;20011;-93
2023/12/30 00:51:04;;;;;;;27.90;17.27;;;;;;;11.01;100.00;99221.25;6237109;22;20076;-94
2023/12/30 00:53:41;;;;;;;32.58;16.98;;;;;;;10.53;100.00;99156.66;6336421;22;20014;-95
2023/12/30 00:59:38;;;;;;;27.63;16.08;;;;;;;10.95;100.00;99218.75;6333920;22;20025;-94
2023/12/30 01:02:17;;;;;;;27.00;16.58;;;;;;;11.01;100.00;99239.00;6363242;22;20019;-95
2023/12/30 01:04:47;;;;;;;26.73;16.58;;;;;;;10.46;100.00;99142.63;6336826;22;20078;-94
2023/12/30 01:07:53;;;;;;;29.45;18.08;;;;;;;10.86;100.00;99230.47;6332838;22;20018;-94
2023/12/30 01:10:52;;;;;;;26.80;18.27;;;;;;;10.07;100.00;99137.16;6328814;22;20018;-96
2023/12/30 01:13:55;;;;;;;27.13;17.00;;;;;;;10.70;100.00;99237.00;6356790;22;20025;-95
2023/12/30 01:16:39;;;;;;;;;;;;;;;10.68;100.00;99236.13;6361970;22;20004;-95
2023/12/30 01:19:15;;;;;;;25.60;14.63;;;;;;;10.38;100.00;99176.47;6334235;22;19898;-96
2023/12/30 01:21:55;;;;;;;25.77;14.55;;;;;;;10.62;100.00;99215.84;6334942;22;20022;-96
2023/12/30 01:24:28;;;;;;;25.08;15.00;;;;;;;9.95;100.00;99148.00;6332873;22;20078;-95
2023/12/30 01:27:20;;;;;;;22.88;14.27;;;;;;;10.15;100.00;99134.34;6331017;22;20014;-95
2023/12/30 01:29:59;;;;;;;23.80;14.68;;;;;;;10.74;100.00;99236.03;6359675;22;20018;-95
2023/12/30 01:32:34;;;;;;;20.15;11.95;;;;;;;10.14;100.00;99148.56;6362009;22;19995;-95
2023/12/30 01:35:14;;;;;;;21.33;13.52;;;;;;;10.17;100.00;99145.81;6335499;22;20002;-95
2023/12/30 01:37:49;;;;;;;18.70;12.43;;;;;;;10.51;100.00;99255.06;6362337;22;20047;-96
2023/12/30 01:40:36;;;;;;;21.77;13.15;;;;;;;9.97;100.00;99155.03;6335572;22;19999;-95
2023/12/30 01:43:08;;;;;;;21.80;13.10;;;;;;;10.48;100.00;99212.59;6333700;22;19995;-96
2023/12/30 01:45:42;;;;;;;21.05;11.57;;;;;;;10.82;100.00;99247.38;6334336;22;19999;-94
2023/12/30 01:48:17;;;;;;;18.33;11.45;;;;;;;10.28;100.00;99146.50;6359363;22;20074;-94
2023/12/30 01:50:58;;;;;;;19.65;11.95;;;;;;;10.55;100.00;99194.75;6333435;22;20022;-96
2023/12/30 01:53:34;;;;;;;19.63;10.77;;;;;;;10.45;100.00;99171.00;6360109;22;20018;-94
2023/12/30 01:56:20;;;;;;;20.50;11.75;;;;;;;10.34;100.00;99154.38;6361527;22;20067;-96
2023/12/30 01:58:59;;;;;;;17.95;10.60;;;;;;;10.38;100.00;99158.72;6359621;22;20045;-95
2023/12/30 02:01:38;;;;;;;17.73;11.50;;;;;;;10.89;100.00;99248.13;6333593;22;20038;-96
2023/12/30 02:04:13;;;;;;;15.68;10.55;;;;;;;10.34;100.00;99156.16;6360726;22;20015;-96
2023/12/30 02:06:47;;;;;;;19.08;10.65;;;;;;;10.43;100.00;99177.25;6333370;22;20030;-95
2023/12/30 02:09:21;;;;;;;15.85;9.63;;;;;;;9.97;100.00;99163.00;6359948;22;19999;-96
2023/12/30 02:12:03;;;;;;;13.45;9.23;;;;;;;9.94;100.00;99167.53;6333118;22;20040;-96
2023/12/30 02:14:36;;;;;;;15.07;9.50;;;;;;;9.99;100.00;99150.59;6359909;22;20014;-95
2023/12/30 02:17:10;;;;;;;17.35;9.02;;;;;;;10.15;100.00;99156.50;6360000;22;20108;-96
2023/12/30 02:19:39;;;;;;;18.23;9.88;;;;;;;10.19;100.00;99154.63;6339464;22;20019;-95
2023/12/30 02:22:12;;;;;;;13.93;8.63;;;;;;;10.20;100.00;99156.41;6327529;22;20016;-96
2023/12/30 02:25:03;;;;;;;14.73;7.07;;;;;;;10.18;100.00;99153.78;6301106;22;20017;-94
2023/12/30 02:27:46;;;;;;;15.13;8.40;;;;;;;10.15;100.00;99142.31;6301082;22;20038;-96
2023/12/30 02:30:21;;;;;;;15.35;7.28;;;;;;;10.52;100.00;99246.22;6301163;22;20011;-95
2023/12/30 02:33:10;;;;;;;12.10;7.72;;;;;;;10.19;100.00;99157.28;6328489;22;20011;-93
2023/12/30 02:35:50;;;;;;;13.68;8.10;;;;;;;10.61;100.00;99226.53;6301886;22;20015;-94
2023/12/30 02:38:21;;;;;;;;;;;;;;;10.69;100.00;99244.09;6327693;22;20045;-96
2023/12/30 02:41:18;;;;;;;10.55;7.07;;;;;;;10.14;100.00;99140.56;6303829;22;19914;-95
2023/12/30 02:44:18;;;;;;;12.35;7.05;;;;;;;10.77;100.00;99245.72;6303807;22;20015;-95
2023/12/30 02:46:53;;;;;;;14.15;8.23;;;;;;;10.39;100.00;99176.44;6328510;22;20015;-94
2023/12/30 02:49:28;;;;;;;11.90;7.70;;;;;;;10.15;100.00;99148.53;6303365;22;20027;-95
2023/12/30 02:52:11;;;;;;;12.93;8.27;;;;;;;10.57;100.00;99233.69;6302898;22;20015;-96
2023/12/30 02:54:49;;;;;;;11.45;7.55;;;;;;;10.79;100.00;99234.13;6330656;22;20015;-95
2023/12/30 02:57:39;;;;;;;12.82;7.40;;;;;;;10.38;100.00;99153.41;6303094;22;20043;-95
2023/12/30 03:00:35;;;;;;;11.90;7.60;;;;;;;10.31;100.00;99145.59;6303960;22;20012;-94
2023/12/30 03:03:15;;;;;;;12.07;7.78;;;;;;;10.90;100.00;99237.44;6327512;22;20006;-95
2023/12/30 03:05:52;;;;;;;14.50;6.97;;;;;;;10.46;100.00;99148.81;6357697;22;20022;-94
2023/12/30 03:08:47;;;;;;;12.80;7.45;;;;;;;11.01;100.00;99237.22;6389667;22;20006;-95
2023/12/30 03:11:23;;;;;;;12.13;7.60;;;;;;;10.50;100.00;99138.13;6390039;22;20040;-95
2023/12/30 03:13:58;;;;;;;13.75;7.93;;;;;;;10.95;100.00;99225.81;6363486;22;20018;-96
2023/12/30 03:16:35;;;;;;;13.50;7.10;;;;;;;10.77;100.00;99203.16;6363359;22;20025;-96
2023/12/30 03:19:05;;;;;;;12.38;7.68;;;;;;;10.32;100.00;99137.56;6356948;22;20021;-95
2023/12/30 03:21:34;;;;;;;13.95;8.43;;;;;;;10.41;100.00;99136.50;6389918;22;20021;-95
2023/12/30 03:24:08;;;;;;;11.52;8.00;;;;;;;10.30;100.00;99128.78;6362942;22;20036;-95
2023/12/30 03:26:46;;;;;;;16.83;8.02;;;;;;;10.39;100.00;99133.91;6362385;22;20010;-94
2023/12/30 03:29:21;;;;;;;11.98;7.00;;;;;;;10.94;100.00;99221.44;6362726;22;20035;-96
2023/12/30 03:31:54;;;;;;;13.55;9.10;;;;;;;10.27;100.00;99118.16;6363095;22;20014;-94
2023/12/30 03:34:33;;;;;;;12.93;8.82;;;;;;;10.58;100.00;99160.09;6391244;22;20104;-95
2023/12/30 03:37:19;;;;;;;;;;;;;;;;;;;;;
2023/12/30 03:39:47;;;;;;;15.52;9.25;;;;;;;10.41;100.00;99125.88;6361710;22;20011;-95
2023/12/30 03:42:41;;;;;;;14.90;10.40;;;;;;;9.92;100.00;99130.34;6363965;22;20010;-95
2023/12/30 03:45:31;;;;;;;15.35;9.30;;;;;;;10.15;100.00;99127.28;6365029;22;20014;-94
2023/12/30 03:48:00;;;;;;;14.55;9.52;;;;;;;10.28;100.00;99154.50;6363526;22;20018;-94
2023/12/30 03:50:40;;;;;;;20.35;10.48;;;;;;;10.25;100.00;99127.94;6363603;22;20088;-95
2023/12/30 03:53:08;;;;;;;12.63;8.63;;;;;;;10.67;100.00;99199.81;6364400;22;20002;-94
2023/12/30 03:55:39;;;;;;;16.80;9.32;;;;;;;10.69;100.00;99228.13;6389698;22;20010;-96
2023/12/30 03:58:26;;;;;;;17.38;9.80;;;;;;;10.02;100.00;99131.06;6388569;22;20006;-94
2023/12/30 04:01:23;;;;;;;16.60;9.02;;;;;;;10.55;100.00;99194.75;6354059;22;20007;-93
2023/12/30 04:03:56;;;;;;;17.77;9.25;;;;;;;10.47;100.00;99157.66;6390479;22;20022;-93
2023/12/30 04:06:29;;;;;;;18.13;9.75;;;;;;;10.20;100.00;99120.06;6389901;22;20015;-95
2023/12/30 04:09:03;;;;;;;13.68;9.00;;;;;;;10.18;100.00;99113.91;6363968;22;20014;-93
2023/12/30 04:11:30;;;;;;;14.20;9.75;;;;;;;10.27;100.00;99118.16;6390243;22;20025;-94
2023/12/30 04:14:06;;;;;;;14.23;9.38;;;;;;;10.15;100.00;99115.75;6364302;22;20026;-95
2023/12/30 04:16:39;;;;;;;15.88;10.43;;;;;;;10.31;100.00;99124.34;6365645;22;20014;-94
2023/12/30 04:19:11;;;;;;;12.63;8.80;;;;;;;10.76;100.00;99188.13;6391025;22;20011;-96
2023/12/30 04:21:41;;;;;;;14.30;9.05;;;;;;;10.80;100.00;99198.66;6362868;22;20091;-95
2023/12/30 04:24:15;;;;;;;14.38;9.32;;;;;;;10.36;100.00;99107.38;6389635;22;20436;-95
2023/12/30 04:26:50;;;;;;;11.68;7.78;;;;;;;11.04;100.00;99201.72;6388786;22;20019;-96
2023/12/30 04:29:26;;;;;;;14.55;8.35;;;;;;;10.85;100.00;99214.53;6363147;22;20036;-95
2023/12/30 04:32:02;;;;;;;12.55;8.23;;;;;;;10.81;100.00;99211.03;6365316;22;20018;-96
2023/12/30 04:34:32;;;;;;;14.27;8.18;;;;;;;10.36;100.00;99128.63;6391451;22;20021;-96
2023/12/30 04:37:10;;;;;;;12.98;7.80;;;;;;;10.38;100.00;99118.84;6365287;22;20077;-94
2023/12/30 04:39:40;;;;;;;12.15;7.65;;;;;;;10.36;100.00;99125.97;6358020;22;20018;-96
2023/12/30 04:42:16;;;;;;;12.60;7.65;;;;;;;10.86;100.00;99192.31;6390866;22;20010;-95
2023/12/30 04:44:58;;;;;;;12.48;7.43;;;;;;;10.43;100.00;99129.38;6364379;22;20036;-96
2023/12/30 04:47:28;;;;;;;12.50;7.88;;;;;;;10.35;100.00;99124.25;6362473;22;20021;-96
2023/12/30 04:49:57;;;;;;;15.70;8.93;;;;;;;10.27;100.00;99124.34;6362955;22;20021;-95
2023/12/30 04:52:32;;;;;;;14.55;9.07;;;;;;;10.24;100.00;99116.44;6361801;22;20018;-95
2023/12/30 04:55:19;;;;;;;14.80;8.55;;;;;;;10.00;100.00;99109.84;6362787;22;20011;-96
2023/12/30 04:57:49;;;;;;;14.55;8.88;;;;;;;10.24;100.00;99120.91;6389445;22;20015;-95
2023/12/30 05:00:18;;;;;;;14.80;8.65;;;;;;;10.32;100.00;99116.31;6389696;22;20036;-95
2023/12/30 05:02:54;;;;;;;14.55;7.80;;;;;;;10.45;100.00;99128.47;6362270;22;20018;-95
2023/12/30 05:05:26;;;;;;;14.75;8.50;;;;;;;10.46;100.00;99116.03;6361957;22;20452;-94
2023/12/30 05:07:55;;;;;;;16.25;9.73;;;;;;;10.78;100.00;99194.25;6389464;22;20015;-96
2023/12/30 05:10:31;;;;;;;15.45;9.55;;;;;;;10.83;100.00;99176.44;6390148;22;20010;-95
2023/12/30 05:13:00;;;;;;;19.90;10.27;;;;;;;10.58;100.00;99112.22;6362384;22;20007;-95
2023/12/30 05:15:32;;;;;;;15.45;9.52;;;;;;;10.60;100.00;99129.03;6388743;22;20014;-95
2023/12/30 05:18:01;;;;;;;14.05;9.05;;;;;;;11.05;100.00;99191.00;6388962;22;20018;-94
2023/12/30 05:20:28;;;;;;;13.77;8.10;;;;;;;10.58;100.00;99106.91;6387415;22;20026;-95
2023/12/30 05:23:04;;;;;;;12.00;7.95;;;;;;;10.62;100.00;99113.91;6390068;22;20010;-95
2023/12/30 05:25:37;;;;;;;14.00;8.65;;;;;;;10.57;100.00;99106.03;6363276;22;20018;-95
2023/12/30 05:28:18;;;;;;;13.25;7.88;;;;;;;10.45;100.00;99120.50;6364633;22;20018;-95
2023/12/30 05:30:50;;;;;;;11.98;7.57;;;;;;;10.94;100.00;99214.31;6390983;22;20014;-95
2023/12/30 05:33:51;;;;;;;12.13;6.97;;;;;;;10.41;100.00;99117.91;6363693;22;20074;-95
2023/12/30 05:36:26;;;;;;;12.38;7.47;;;;;;;10.89;100.00;99195.78;6387926;22;20010;-94
2023/12/30 05:39:13;;;;;;;12.27;7.28;;;;;;;10.92;100.00;99201.97;6364330;22;20019;-96
2023/12/30 05:41:48;;;;;;;10.90;6.80;;;;;;;11.08;100.00;99219.31;6363897;22;20018;-94
2023/12/30 05:44:38;;;;;;;12.95;7.68;;;;;;;10.50;100.00;99138.13;6391858;22;20044;-95
2023/12/30 05:47:09;;;;;;;11.18;7.35;;;;;;;10.76;100.00;99175.69;6389674;22;20018;-95
2023/12/30 05:49:40;;;;;;;10.77;6.90;;;;;;;10.88;100.00;99228.63;6390674;22;20053;-94
2023/12/30 05:52:27;;;;;;;9.63;6.15;;;;;;;10.35;100.00;99129.56;6391161;22;20011;-94
2023/12/30 05:54:54;;;;;;;8.30;6.13;;;;;;;10.73;100.00;99175.72;6362259;22;20018;-95
2023/12/30 05:57:25;;;;;;;10.73;7.15;;;;;;;10.45;100.00;99146.19;6364859;22;20045;-93
2023/12/30 05:59:57;;;;;;;12.38;5.53;;;;;;;11.00;100.00;99226.63;6365706;22;20015;-96
2023/12/30 06:03:11;;;;;;;;;;;;;;;;;;;;;
2023/12/30 06:05:48;;;;;;;11.55;6.00;;;;;;;10.82;100.00;99207.50;6355897;22;20322;-96
2023/12/30 06:08:27;;;;;;;10.15;6.20;;;;;;;10.45;100.00;99148.84;6326325;22;20078;-96
2023/12/30 06:10:57;;;;;;;12.00;6.30;;;;;;;10.29;100.00;99142.97;6327495;22;20011;-94
2023/12/30 06:13:30;;;;;;;10.85;6.60;;;;;;;10.23;100.00;99133.28;6350332;22;20044;-96
2023/12/30 06:15:59;;;;;;;11.63;6.50;;;;;;;10.20;100.00;99129.84;6351669;22;20015;-95
2023/12/30 06:18:33;;;;;;;10.15;6.65;;;;;;;10.46;100.00;99154.13;6353137;22;20019;-95
2023/12/30 06:21:04;;;;;;;11.85;7.35;;;;;;;10.24;100.00;99123.56;6327933;22;20015;-94
2023/12/30 06:23:42;;;;;;;11.32;6.65;;;;;;;10.27;100.00;99126.13;6327982;22;20037;-95
2023/12/30 06:26:11;;;;;;;11.57;7.30;;;;;;;10.22;100.00;99122.72;6329754;22;20022;-94
2023/12/30 06:28:45;;;;;;;12.40;7.78;;;;;;;10.80;100.00;99216.38;6329424;22;20015;-96
2023/12/30 06:31:29;;;;;;;15.93;8.75;;;;;;;10.02;100.00;99139.03;6330302;22;20015;-96
2023/12/30 06:34:14;;;;;;;11.95;7.55;;;;;;;10.32;100.00;99216.44;6328798;22;20087;-95
2023/12/30 06:36:51;;;;;;;15.65;7.50;;;;;;;10.32;100.00;99213.78;6330592;22;20046;-96
2023/12/30 06:39:59;;;;;;;12.20;8.23;;;;;;;9.93;100.00;99177.28;6329892;22;20089;-95
2023/12/30 06:42:32;;;;;;;10.32;6.57;;;;;;;9.83;100.00;99143.81;6355349;22;20041;-94
2023/12/30 06:48:57;;;;;;;11.80;6.65;;;;;;;9.79;100.00;99195.22;6330524;22;20026;-95
2023/12/30 06:51:45;;;;;;;10.88;6.38;;;;;;;9.74;100.00;99157.25;6329955;22;20041;-95
2023/12/30 06:54:58;;;;;;;10.55;6.72;;;;;;;10.27;100.00;99257.25;6329270;22;20012;-95
2023/12/30 06:57:33;;;;;;;9.35;6.68;;;;;;;9.80;100.00;99159.78;6328134;22;20015;-95
2023/12/30 07:00:15;;;;;;;7.97;5.68;;;;;;;9.87;100.00;99170.28;6325598;22;20011;-95
2023/12/30 07:02:49;;;;;;;8.95;6.25;;;;;;;10.06;100.00;99175.25;6356008;22;20012;-95
2023/12/30 07:05:35;;;;;;;10.50;5.88;;;;;;;10.50;100.00;99241.84;6335156;22;20022;-95
2023/12/30 07:08:12;;;;;;;12.82;7.55;;;;;;;10.21;100.00;99187.38;6365249;22;20018;-95
2023/12/30 07:10:44;;;;;;;10.75;6.38;;;;;;;10.33;100.00;99181.00;6389660;22;20014;-95
2023/12/30 07:13:17;;;;;;;10.90;5.60;;;;;;;10.84;100.00;99256.22;6388605;22;20343;-95
2023/12/30 07:15:50;;;;;;;11.43;6.18;;;;;;;10.46;100.00;99188.69;6385817;22;20015;-94
2023/12/30 07:18:28;;;;;;;11.07;7.70;;;;;;;10.55;100.00;99181.44;6390474;22;20011;-94
2023/12/30 07:20:58;;;;;;;10.85;6.63;;;;;;;10.54;100.00;99191.22;6392268;22;20019;-95
2023/12/30 07:23:36;;;;;;;9.25;6.00;;;;;;;11.00;100.00;99255.91;6365075;22;20027;-94
2023/12/30 07:26:10;;;;;;;11.57;6.10;;;;;;;11.02;100.00;99257.63;6364705;22;20018;-94
2023/12/30 07:31:48;;;;;;;;;;;;;;;11.17;100.00;99284.78;6368097;22;20071;-96
2023/12/30 07:34:25;;;;;;;12.45;6.30;;;;;;;10.68;100.00;99196.25;6365777;22;19902;-94
2023/12/30 07:36:58;;;;;;;7.93;5.70;;;;;;;10.60;100.00;99192.84;6365757;22;20037;-94
2023/12/30 07:39:36;;;;;;;10.10;5.55;;;;;;;11.21;100.00;99283.81;6364889;22;20033;-95
2023/12/30 07:42:33;;;;;;;9.93;5.80;;;;;;;11.03;100.00;99293.09;6339954;22;20009;-95
2023/12/30 07:45:12;;;;;;;9.68;5.82;;;;;;;10.58;100.00;99186.69;6389350;22;20011;-96
2023/12/30 07:47:48;;;;;;;8.30;4.72;;;;;;;11.28;100.00;99281.00;6366116;22;20048;-95
2023/12/30 07:50:30;;;;;;;8.73;4.88;;;;;;;10.73;100.00;99188.16;6392646;22;20019;-95
2023/12/30 07:53:12;;;;;;;9.05;5.45;;;;;;;10.85;100.00;99203.88;6391420;22;20014;-95
2023/12/30 07:55:42;;;;;;;9.55;6.57;;;;;;;10.90;100.00;99216.16;6364828;22;20057;-95
2023/12/30 07:58:48;;;;;;;8.20;5.40;;;;;;;10.82;100.00;99207.50;6365619;22;20025;-96
2023/12/30 08:01:30;;;;;;;8.18;5.47;;;;;;;11.36;100.00;99287.94;6349764;22;20011;-94
2023/12/30 08:04:09;;;;;;;11.43;4.15;;;;;;;11.00;100.00;99216.84;6386614;22;20015;-95
2023/12/30 08:10:37;;;;;;;9.52;4.85;;;;;;;11.62;100.00;99288.22;6354609;22;20014;-96
2023/12/30 08:13:19;;;;;;;11.95;5.43;;;;;;;11.84;100.00;99314.38;6351544;22;20019;-96
2023/12/30 08:15:51;;;;;;;10.05;4.57;;;;;;;11.36;100.00;99214.25;6382329;22;20023;-95
2023/12/30 08:18:57;;;;;;;10.95;5.97;;;;;;;11.55;100.00;99228.03;6320651;22;20029;-96
2023/12/30 08:40:42;;;;;;;11.57;8.18;;;;;;;12.40;100.00;99237.44;6226931;23;20016;-96
2023/12/30 08:43:11;;;;;;;16.08;10.63;;;;;;;12.39;100.00;99230.38;6231500;22;20015;-96
2023/12/30 08:45:38;;;;;;;19.75;12.05;;;;;;;12.45;100.00;99242.69;6236030;23;20052;-94
2023/12/30 08:48:08;;;;;;;22.92;14.73;;;;;;;12.63;100.00;99267.97;6240635;22;20034;-93
2023/12/30 08:50:48;;;;;;;31.98;18.63;;;;;;;12.40;100.00;99232.13;6240648;23;20020;-94
2023/12/30 08:53:24;;;;;;;30.80;17.50;;;;;;;12.42;100.00;99234.75;6238019;23;20470;-94
2023/12/30 08:59:41;;;;;;;26.08;15.98;;;;;;;12.92;100.00;99305.41;6265568;22;20118;-96
2023/12/30 09:02:18;;;;;;;24.35;15.30;;;;;;;12.60;100.00;99252.94;6230448;23;20227;-96
2023/12/30 09:04:50;;;;;;;24.85;15.48;;;;;;;12.63;100.00;99255.50;6238109;23;20020;-95
2023/12/30 09:07:41;;;;;;;32.28;19.05;;;;;;;12.72;100.00;99252.56;6268040;22;20017;-94
2023/12/30 09:10:22;;;;;;;26.73;17.08;;;;;;;12.76;100.00;99244.50;6285954;22;20019;-96
2023/12/30 09:13:14;;;;;;;29.35;17.02;;;;;;;12.87;100.00;99243.25;6331369;22;20033;-95
2023/12/30 09:15:45;;;;;;;25.52;16.35;;;;;;;13.54;100.00;99346.41;6299009;22;20026;-96
2023/12/30 09:18:14;;;;;;;18.95;13.27;;;;;;;13.23;100.00;99255.56;6324849;22;19995;-96
2023/12/30 09:20:46;;;;;;;19.60;12.18;;;;;;;13.25;100.00;99254.63;6322400;22;20011;-96
2023/12/30 09:30:46;;;;;;;15.50;10.68;;;;;;;13.81;100.00;99307.25;6058691;23;20011;-95
2023/12/30 09:33:35;;;;;;;14.25;8.93;;;;;;;14.01;100.00;99346.75;6056697;23;20015;-95
2023/12/30 09:36:19;;;;;;;13.63;7.90;;;;;;;14.13;100.00;99340.97;6064113;23;20022;-95
2023/12/30 09:39:14;;;;;;;13.32;7.35;;;;;;;13.74;100.00;99252.25;6090873;23;20014;-95
2023/12/30 09:41:57;;;;;;;14.32;8.32;;;;;;;13.80;99.25;99257.38;6095382;23;20018;-95
2023/12/30 09:47:58;;;;;;;15.52;10.98;;;;;;;13.79;100.00;99260.09;6047529;23;20022;-94
2023/12/30 09:52:09;;;;;;;;;;;;;;;;;;;;;
2023/12/30 10:05:54;;;;;;;12.82;6.90;;;;;;;12.49;100.00;99250.56;6079950;23;20031;-96
2023/12/30 10:12:51;;;;;;;9.95;6.63;;;;;;;12.84;100.00;99238.03;6061369;23;20030;-95
2023/12/30 10:16:47;;;;;;;11.07;7.80;;;;;;;13.64;100.00;99320.25;6004582;23;20048;-96
2023/12/30 10:20:25;;;;;;;;;;;;;;;;;;;;;
2023/12/30 10:23:47;;;;;;;13.93;8.93;;;;;;;14.02;100.00;99313.72;6004770;23;20023;-95
2023/12/30 10:27:47;;;;;;;13.68;7.00;;;;;;;14.12;100.00;99307.16;6001801;23;20028;-95
2023/12/30 10:37:38;;;;;;;10.52;6.65;;;;;;;14.00;94.92;99211.28;6039985;23;20015;-94
2023/12/30 10:40:22;;;;;;;8.10;4.68;;;;;;;14.08;92.52;99200.34;6084474;23;20421;-96
2023/12/30 10:43:15;;;;;;;8.27;6.65;;;;;;;14.21;90.34;99198.97;6147651;23;20017;-96
2023/12/30 10:52:01;;;;;;;;;;;;;;;;;;;;;
2023/12/30 10:55:09;;;;;;;9.85;6.10;;;;;;;15.11;89.61;99274.28;6256438;22;20030;-95
2023/12/30 11:01:36;;;;;;;9.02;4.50;;;;;;;14.60;83.26;99184.25;6253075;22;20042;-96
2023/12/30 11:08:26;;;;;;;10.32;6.20;;;;;;;15.01;85.71;99265.72;6300477;22;20041;-95
2023/12/30 11:11:24;;;;;;;11.30;6.88;;;;;;;14.45;88.49;99189.19;6298243;22;20023;-96
2023/12/30 11:14:14;;;;;;;10.57;5.43;;;;;;;14.21;90.19;99176.72;6273161;22;20349;-96
2023/12/30 11:23:22;;;;;;;13.18;7.50;;;;;;;14.22;92.24;99165.06;6249658;22;20015;-94
2023/12/30 11:26:14;;;;;;;14.23;8.95;;;;;;;14.22;92.54;99168.59;6300891;22;20074;-95
2023/12/30 11:29:31;;;;;;;;;;;;;;;;;;;;;
2023/12/30 11:56:36;;;;;;;7.70;4.90;;;;;;;14.37;86.23;99141.31;6204426;23;20032;-95
2023/12/30 11:59:54;;;;;;;6.88;4.93;;;;;;;14.44;85.99;99139.28;6207522;23;20049;-94
2023/12/30 12:11:14;;;;;;;9.55;5.85;;;;;;;15.39;80.25;99194.56;6060479;23;20031;-96
2023/12/30 12:14:46;;;;;;;;;;;;;;;;;;;;;
2023/12/30 12:25:50;;;;;;;9.95;6.63;;;;;;;14.50;84.27;99101.59;6272063;22;20047;-95
2023/12/30 12:28:48;;;;;;;11.10;6.63;;;;;;;14.51;83.95;99089.09;6394922;22;20018;-95
2023/12/30 13:17:40;;;;;;;;;;;;;;;;;;;;;
2023/12/30 14:06:41;;;;;;;12.52;5.55;;;;;;;14.09;97.39;99034.44;6246098;23;20028;-94
2023/12/30 14:10:16;;;;;;;;;;;;;;;;;;;;;
2023/12/30 14:17:03;;;;;;;;;;;;;;;;;;;;;
2023/12/30 14:27:18;;;;;;;10.65;5.13;;;;;;;14.25;100.00;99117.69;6097248;23;20025;-95
2023/12/30 14:34:05;;;;;;;10.13;5.43;;;;;;;14.13;100.00;99121.66;6103397;23;20021;-93
2023/12/30 14:47:49;;;;;;;9.82;5.35;;;;;;;14.07;100.00;99091.59;6277845;22;20228;-96
2023/12/30 15:22:14;;;;;;;8.43;4.28;;;;;;;13.19;100.00;99041.16;6291335;22;20008;-95
2023/12/30 15:32:14;;;;;;;15.77;5.43;;;;;;;13.29;100.00;99053.34;6175885;23;20394;-94
2023/12/30 15:39:03;;;;;;;;;;;;;;;;;;;;;
2023/12/30 15:42:52;;;;;;;;;;;;;;;;;;;;;
2023/12/30 15:54:23;;;;;;;;;;;;;;;;;;;;;
2023/12/30 15:58:02;;;;;;;12.45;5.30;;;;;;;13.08;100.00;99072.69;6069117;23;20045;-93
2023/12/30 16:04:30;;;;;;;;;;;;;;;;;;;;;
2023/12/30 16:07:40;;;;;;;11.68;5.65;;;;;;;12.73;100.00;99037.34;6083635;23;20054;-94
2023/12/30 16:10:57;;;;;;;;;;;;;;;;;;;;;
2023/12/30 16:14:14;;;;;;;;;;;;;;;;;;;;;
2023/12/30 16:36:39;;;;;;;7.20;4.22;;;;;;;12.83;100.00;99121.50;5947647;23;20028;-95
2023/12/30 16:43:26;;;;;;;7.22;3.65;;;;;;;12.35;100.00;99036.69;5872306;24;20027;-95
2023/12/30 16:58:02;;;;;;;;;;;;;;;;;;;;;
2023/12/30 17:01:28;;;;;;;11.40;5.38;;;;;;;13.03;100.00;99131.56;6145380;23;20049;-96
2023/12/30 17:09:03;;;;;;;;;;;;;;;;;;;;;
2023/12/30 17:12:34;;;;;;;8.93;4.35;;;;;;;12.39;100.00;99058.81;6117548;23;20015;-94
2023/12/30 17:20:32;;;;;;;;;;;;;;;;;;;;;
2023/12/30 17:27:53;;;;;;;10.27;4.90;;;;;;;12.33;100.00;99059.88;5767472;24;20036;-96
2023/12/30 17:31:31;;;;;;;10.23;5.45;;;;;;;12.82;100.00;99148.25;5802258;24;20028;-94
2023/12/30 17:38:58;;;;;;;12.90;7.57;;;;;;;11.56;100.00;99064.66;5736374;25;20114;-95
2023/12/30 17:46:23;;;;;;;17.02;9.05;;;;;;;11.29;100.00;99100.84;5734488;24;20031;-95
2023/12/30 17:57:56;;;;;;;14.68;6.75;;;;;;;11.07;100.00;99077.41;5834326;24;20038;-96
2023/12/30 18:13:54;;;;;;;17.13;7.95;;;;;;;10.71;100.00;99075.59;6325846;22;20023;-95
2023/12/30 18:31:09;;;;;;;24.45;11.82;;;;;;;10.57;100.00;99174.31;6191955;23;20032;-92
2023/12/30 18:34:21;;;;;;;22.80;11.75;;;;;;;10.48;100.00;99181.56;6201764;23;20097;-94
2023/12/30 18:37:49;;;;;;;24.27;11.68;;;;;;;9.96;100.00;99088.69;6204450;23;20024;-95
2023/12/30 18:40:52;;;;;;;24.60;12.82;;;;;;;10.02;100.00;99083.25;6170792;23;20025;-93
2023/12/30 18:43:57;;;;;;;25.83;12.70;;;;;;;10.55;100.00;99177.00;6171404;23;20017;-94
2023/12/30 18:47:03;;;;;;;23.88;12.55;;;;;;;10.23;100.00;99100.53;6173860;23;20041;-93
2023/12/30 18:53:34;;;;;;;23.33;11.98;;;;;;;10.96;100.00;99167.25;6199959;23;20012;-95
2023/12/30 18:57:01;;;;;;;;;;;;;;;;;;;;;
2023/12/30 18:59:57;;;;;;;25.33;14.02;;;;;;;10.52;100.00;99084.00;6259257;22;20083;-94
2023/12/30 19:02:54;;;;;;;23.23;11.88;;;;;;;10.38;100.00;99091.41;6324314;22;20019;-93
2023/12/30 19:06:14;;;;;;;29.67;15.40;;;;;;;10.89;100.00;99157.69;6298175;22;20023;-94
2023/12/30 19:08:48;;;;;;;20.40;11.32;;;;;;;10.62;100.00;99097.97;6318536;22;20030;-94
2023/12/30 19:15:23;;;;;;;26.98;12.82;;;;;;;10.68;100.00;99119.09;6307873;22;20129;-93
2023/12/30 19:22:13;;;;;;;25.90;11.38;;;;;;;10.81;100.00;99171.13;6315606;22;20019;-94
2023/12/30 19:28:47;;;;;;;27.92;14.68;;;;;;;10.77;100.00;99174.75;6226709;23;20029;-94
2023/12/30 19:31:58;;;;;;;;;;;;;;;;;;;;;
2023/12/30 19:39:30;;;;;;;39.10;19.75;;;;;;;10.97;100.00;99170.78;6149768;23;20022;-95
2023/12/30 19:42:54;;;;;;;;;;;;;;;;;;;;;
2023/12/30 19:53:27;;;;;;;33.53;15.90;;;;;;;10.42;100.00;99133.81;5967387;24;20028;-94
2023/12/30 20:04:11;;;;;;;25.75;12.27;;;;;;;10.45;100.00;99167.44;5860990;24;20018;-94
2023/12/30 20:18:10;;;;;;;23.27;12.65;;;;;;;10.08;100.00;99168.13;5883679;24;20026;-94
2023/12/30 20:21:59;;;;;;;27.48;13.63;;;;;;;9.97;100.00;99176.28;5931498;24;20360;-94
2023/12/30 20:25:08;;;;;;;23.35;12.13;;;;;;;9.29;100.00;99088.13;5917728;24;20044;-93
2023/12/30 20:38:41;;;;;;;20.67;10.75;;;;;;;9.66;100.00;99182.16;6168743;23;20142;-94
2023/12/30 20:49:24;;;;;;;;;;;;;;;;;;;;;
2023/12/30 21:02:56;;;;;;;28.70;12.32;;;;;;;8.74;100.00;99089.84;6012401;23;20069;-93
2023/12/30 23:20:09;;;;;;;19.80;10.20;;;;;;;10.16;100.00;99102.44;6250984;22;20050;-95
2023/12/30 23:26:53;;;;;;;18.05;9.27;;;;;;;10.01;100.00;99114.22;6258250;22;20004;-94
2023/12/30 23:33:42;;;;;;;18.83;10.23;;;;;;;9.87;100.00;99093.25;6202461;23;20024;-95
2023/12/30 23:51:55;;;;;;;;;;;;;;;;;;;;;